Time;durP1;ratioP1;P1;durP2;ratioP2;P2;SDS_P1;SDS_P2;PMS_P1;PMS_P2;Temp;Humidity;BMP_temperature;BMP_pressure;BME280_temperature;BME280_humidity;BME280_pressure;Samples;Min_cycle;Max_cycle;Signal;HPM_P1;HPM_P2
2022/08/11 00:01:19;;;;;;;14.32;8.75;;;18.20;99.90;;;;;;5044552;28;20123;-60
2022/08/11 00:03:58;;;;;;;10.10;7.57;;;18.20;99.90;;;;;;5036303;28;20201;-61
2022/08/11 00:06:30;;;;;;;10.02;8.23;;;18.20;99.90;;;;;;5036515;28;20495;-62
2022/08/11 00:08:58;;;;;;;11.30;8.43;;;18.10;99.90;;;;;;5040295;28;20045;-60
2022/08/11 00:11:42;;;;;;;11.70;9.32;;;18.10;99.90;;;;;;5052071;28;20492;-58
2022/08/11 00:14:27;;;;;;;9.82;8.48;;;18.10;99.90;;;;;;5044300;28;20407;-61
2022/08/11 00:17:07;;;;;;;11.38;10.05;;;18.10;99.90;;;;;;5043258;28;20060;-61
2022/08/11 00:20:01;;;;;;;13.73;9.43;;;18.10;99.90;;;;;;5050017;28;20059;-61
2022/08/11 00:22:28;;;;;;;11.90;10.48;;;18.10;99.90;;;;;;5044091;28;20256;-58
2022/08/11 00:24:55;;;;;;;14.48;10.30;;;18.10;99.90;;;;;;5044977;28;20041;-59
2022/08/11 00:27:32;;;;;;;11.75;9.45;;;18.10;99.90;;;;;;5036488;28;20175;-59
2022/08/11 00:29:58;;;;;;;12.95;10.00;;;18.10;99.90;;;;;;5043973;28;20087;-59
2022/08/11 00:32:24;;;;;;;9.65;8.65;;;18.00;99.90;;;;;;5041673;28;21016;-61
2022/08/11 00:34:53;;;;;;;12.40;9.65;;;18.00;99.90;;;;;;5048286;28;20528;-61
2022/08/11 00:37:21;;;;;;;14.18;10.35;;;18.00;99.90;;;;;;5047409;28;20040;-61
2022/08/11 00:39:53;;;;;;;16.70;11.02;;;17.90;99.90;;;;;;5048947;28;20076;-59
2022/08/11 00:42:22;;;;;;;12.25;9.60;;;17.90;99.90;;;;;;5030177;28;20052;-58
2022/08/11 00:45:03;;;;;;;8.40;7.00;;;17.80;99.90;;;;;;5047185;28;20143;-60
2022/08/11 00:47:34;;;;;;;11.18;9.70;;;17.80;99.90;;;;;;5051281;28;20495;-61
2022/08/11 00:50:41;;;;;;;12.82;9.23;;;17.90;99.90;;;;;;5051196;28;20491;-61
2022/08/11 00:53:31;;;;;;;10.60;8.75;;;17.80;99.90;;;;;;5000027;28;20440;-60
2022/08/11 00:56:31;;;;;;;12.50;9.57;;;17.80;99.90;;;;;;5005858;28;20054;-59
2022/08/11 00:59:16;;;;;;;13.40;9.27;;;17.80;99.90;;;;;;5047602;28;20139;-59
2022/08/11 01:01:57;;;;;;;13.85;10.43;;;17.80;99.90;;;;;;5059868;28;20059;-61
2022/08/11 01:04:50;;;;;;;11.45;9.10;;;17.70;99.90;;;;;;5034522;28;20054;-61
2022/08/11 01:07:19;;;;;;;11.20;9.35;;;17.70;99.90;;;;;;5049130;28;20710;-60
2022/08/11 01:10:08;;;;;;;11.60;8.77;;;17.70;99.90;;;;;;5053158;28;20495;-61
2022/08/11 01:12:53;;;;;;;11.98;9.65;;;17.70;99.90;;;;;;5051618;28;20045;-55
2022/08/11 01:16:10;;;;;;;14.25;9.55;;;17.70;99.90;;;;;;5037207;28;20040;-60
2022/08/11 01:18:47;;;;;;;12.10;8.88;;;17.70;99.90;;;;;;5054220;28;20041;-59
2022/08/11 01:21:37;;;;;;;13.82;8.90;;;17.60;99.90;;;;;;5051803;28;20040;-61
2022/08/11 01:24:40;;;;;;;11.68;8.63;;;17.60;99.90;;;;;;5047699;28;20153;-61
2022/08/11 01:27:12;;;;;;;10.38;8.25;;;17.60;99.90;;;;;;5048887;28;20045;-60
2022/08/11 01:30:19;;;;;;;10.60;9.50;;;17.60;99.90;;;;;;5038528;28;20539;-59
2022/08/11 01:33:09;;;;;;;10.95;7.35;;;17.60;99.90;;;;;;5028806;28;20319;-60
2022/08/11 01:36:06;;;;;;;11.07;9.55;;;17.50;99.90;;;;;;5051521;28;20523;-58
2022/08/11 01:38:47;;;;;;;11.23;8.98;;;17.50;99.90;;;;;;5033771;28;20040;-60
2022/08/11 01:44:45;;;;;;;13.00;8.57;;;17.50;99.90;;;;;;5050059;28;20474;-61
2022/08/11 01:47:49;;;;;;;12.93;9.23;;;17.50;99.90;;;;;;5025997;28;20128;-60
2022/08/11 01:50:47;;;;;;;12.83;9.07;;;17.50;99.90;;;;;;5040463;28;20037;-60
2022/08/11 01:53:28;;;;;;;9.07;8.00;;;17.50;99.90;;;;;;5050727;28;20564;-61
2022/08/11 01:56:32;;;;;;;12.35;8.57;;;17.40;99.90;;;;;;5053737;28;20040;-59
2022/08/11 01:59:22;;;;;;;12.65;8.43;;;17.50;99.90;;;;;;5040150;28;20042;-57
2022/08/11 02:02:18;;;;;;;12.48;8.63;;;17.40;99.90;;;;;;5052298;28;20446;-60
2022/08/11 02:05:00;;;;;;;13.82;10.10;;;17.40;99.90;;;;;;5043008;28;20040;-60
2022/08/11 02:07:51;;;;;;;11.10;8.85;;;17.40;99.90;;;;;;5045315;28;20063;-60
2022/08/11 02:13:55;;;;;;;17.13;10.85;;;17.30;99.90;;;;;;5058699;28;20045;-59
2022/08/11 02:16:36;;;;;;;12.70;9.05;;;17.40;99.90;;;;;;5049376;28;20345;-62
2022/08/11 02:25:30;;;;;;;11.93;9.00;;;17.30;99.90;;;;;;5047850;28;20048;-59
2022/08/11 02:28:18;;;;;;;13.15;9.93;;;17.30;99.90;;;;;;5049297;28;20049;-58
2022/08/11 02:34:15;;;;;;;12.63;7.97;;;17.30;99.90;;;;;;5044266;28;20165;-58
2022/08/11 02:36:59;;;;;;;12.30;10.05;;;17.30;99.90;;;;;;5041677;28;20053;-59
2022/08/11 02:39:45;;;;;;;16.23;10.23;;;17.20;99.90;;;;;;5064715;28;20495;-59
2022/08/11 02:42:26;;;;;;;11.65;8.82;;;17.30;99.90;;;;;;5068120;22;20137;-56
2022/08/11 02:45:01;;;;;;;10.73;9.30;;;17.30;99.90;;;;;;5050456;28;20518;-58
2022/08/11 02:51:16;;;;;;;15.65;9.85;;;17.20;99.90;;;;;;5024322;28;20045;-57
2022/08/11 02:53:56;;;;;;;13.73;9.65;;;17.20;99.90;;;;;;5036191;28;20056;-57
2022/08/11 02:56:50;;;;;;;12.45;9.75;;;17.20;99.90;;;;;;5033568;28;20053;-58
2022/08/11 03:02:33;;;;;;;12.88;11.05;;;17.20;99.90;;;;;;5032059;28;20045;-58
2022/08/11 03:05:07;;;;;;;15.30;10.40;;;17.20;99.90;;;;;;5033586;28;20045;-56
2022/08/11 03:07:39;;;;;;;11.65;9.77;;;17.10;99.90;;;;;;5040933;28;20037;-57
2022/08/11 03:10:29;;;;;;;11.38;9.88;;;17.10;99.90;;;;;;5034738;28;20041;-56
2022/08/11 03:19:22;;;;;;;10.48;7.82;;;17.10;99.90;;;;;;5032942;28;20196;-55
2022/08/11 03:22:17;;;;;;;15.48;12.52;;;17.10;99.90;;;;;;5015025;28;20208;-57
2022/08/11 03:25:04;;;;;;;15.25;11.35;;;17.10;99.90;;;;;;5034055;28;20056;-58
2022/08/11 03:27:59;;;;;;;12.82;11.05;;;17.10;99.90;;;;;;5030605;28;20041;-57
2022/08/11 03:31:10;;;;;;;11.98;10.65;;;17.10;99.90;;;;;;5039867;28;20052;-58
2022/08/11 03:34:03;;;;;;;14.40;9.40;;;17.00;99.90;;;;;;5002923;28;20053;-58
2022/08/11 03:36:45;;;;;;;14.23;10.63;;;17.00;99.90;;;;;;5028111;28;20857;-56
2022/08/11 03:39:34;;;;;;;13.95;10.82;;;17.00;99.90;;;;;;5046024;28;20037;-58
2022/08/11 03:42:08;;;;;;;;;;;17.00;99.90;;;;;;5012046;28;20067;-56
2022/08/11 03:44:40;;;;;;;13.75;11.27;;;16.90;99.90;;;;;;5035437;28;19925;-57
2022/08/11 03:47:40;;;;;;;13.45;11.95;;;16.90;99.90;;;;;;5046698;28;20081;-58
2022/08/11 03:50:42;;;;;;;12.52;9.85;;;16.90;99.90;;;;;;5019885;28;20071;-55
2022/08/11 03:53:15;;;;;;;13.35;10.80;;;16.90;99.90;;;;;;5035206;28;20127;-56
2022/08/11 03:56:04;;;;;;;14.25;11.00;;;16.90;99.90;;;;;;5007256;28;20045;-56
2022/08/11 03:58:55;;;;;;;15.25;10.85;;;16.90;99.90;;;;;;5037777;28;22672;-55
2022/08/11 04:01:39;;;;;;;15.65;11.93;;;16.90;99.90;;;;;;5026448;28;20041;-55
2022/08/11 04:04:17;;;;;;;12.07;9.27;;;16.80;99.90;;;;;;5038995;28;20036;-56
2022/08/11 04:07:04;;;;;;;12.02;10.05;;;16.80;99.90;;;;;;5042938;28;20052;-57
2022/08/11 04:09:45;;;;;;;14.18;10.70;;;16.80;99.90;;;;;;5042424;28;20040;-56
2022/08/11 04:12:56;;;;;;;16.33;10.88;;;16.80;99.90;;;;;;5049031;28;20033;-57
2022/08/11 04:16:00;;;;;;;14.27;9.98;;;16.80;99.90;;;;;;5034940;28;20043;-56
2022/08/11 04:18:53;;;;;;;11.70;9.02;;;16.80;99.90;;;;;;5029052;28;20048;-56
2022/08/11 04:21:34;;;;;;;16.45;12.65;;;16.80;99.90;;;;;;5036092;28;20041;-53
2022/08/11 04:24:18;;;;;;;13.85;11.77;;;16.70;99.90;;;;;;5026195;28;20515;-56
2022/08/11 04:27:17;;;;;;;13.27;10.25;;;16.70;99.90;;;;;;5026158;28;20495;-56
2022/08/11 04:29:57;;;;;;;16.90;11.73;;;16.70;99.90;;;;;;5039451;28;20526;-54
2022/08/11 04:32:41;;;;;;;14.57;10.23;;;16.70;99.90;;;;;;5014530;28;20389;-55
2022/08/11 04:35:43;;;;;;;14.30;9.52;;;16.70;99.90;;;;;;5028407;28;20246;-53
2022/08/11 04:38:34;;;;;;;13.73;11.13;;;16.70;99.90;;;;;;5021156;28;20080;-55
2022/08/11 04:43:19;;;;;;;11.75;10.50;;;16.70;99.90;;;;;;5030930;28;20436;-59
2022/08/11 04:45:05;;;;;;;13.93;10.32;;;16.70;99.90;;;;;;5020816;28;20415;-55
2022/08/11 05:03:34;;;;;;;12.27;10.23;;;16.80;99.90;;;;;;5036667;28;20041;-56
2022/08/11 05:06:20;;;;;;;18.30;12.85;;;16.80;99.90;;;;;;5031473;28;20061;-55
2022/08/11 05:09:23;;;;;;;12.73;10.77;;;16.90;99.90;;;;;;5028103;28;20654;-56
2022/08/11 05:11:52;;;;;;;12.23;9.52;;;16.90;99.90;;;;;;5027910;28;20037;-56
2022/08/11 05:34:50;;;;;;;14.52;11.35;;;17.30;99.90;;;;;;5031029;28;20079;-57
2022/08/11 05:58:02;;;;;;;16.45;12.10;;;17.70;99.90;;;;;;5031584;28;20045;-56
2022/08/11 06:00:29;;;;;;;17.23;10.88;;;17.80;99.90;;;;;;5030715;28;20254;-56
2022/08/11 06:03:09;;;;;;;14.73;12.57;;;17.90;99.90;;;;;;5037049;28;20034;-57
2022/08/11 06:05:42;;;;;;;14.10;10.77;;;17.90;99.90;;;;;;5028852;28;20045;-55
2022/08/11 06:08:09;;;;;;;15.32;11.90;;;18.00;99.90;;;;;;5030145;28;20037;-56
2022/08/11 06:10:37;;;;;;;13.35;10.68;;;18.10;99.90;;;;;;5030136;28;20052;-57
2022/08/11 06:13:05;;;;;;;13.13;9.85;;;18.20;99.90;;;;;;5025128;28;20060;-57
2022/08/11 06:15:37;;;;;;;16.55;10.55;;;18.30;99.90;;;;;;5028584;28;20045;-57
2022/08/11 06:18:03;;;;;;;13.45;10.73;;;18.30;99.90;;;;;;5026783;28;20064;-57
2022/08/11 06:20:35;;;;;;;12.27;10.02;;;18.50;99.90;;;;;;5023749;28;20029;-57
2022/08/11 06:23:06;;;;;;;14.50;12.10;;;18.60;99.90;;;;;;5028643;28;20064;-57
2022/08/11 06:25:34;;;;;;;18.38;11.20;;;18.70;99.90;;;;;;5038330;28;20094;-57
2022/08/11 06:28:03;;;;;;;14.75;11.43;;;18.70;99.90;;;;;;5033967;28;20040;-57
2022/08/11 06:30:39;;;;;;;15.88;10.90;;;18.80;99.90;;;;;;5045102;28;20053;-57
2022/08/11 06:33:20;;;;;;;16.75;11.20;;;18.90;99.90;;;;;;5043786;28;20384;-57
2022/08/11 06:36:14;;;;;;;12.75;9.75;;;19.00;99.90;;;;;;5033979;28;20719;-57
2022/08/11 06:38:57;;;;;;;11.32;9.02;;;19.10;99.90;;;;;;5027128;28;20495;-57
2022/08/11 06:41:47;;;;;;;14.25;10.23;;;19.30;99.90;;;;;;5028939;28;20052;-57
2022/08/11 06:44:13;;;;;;;16.13;9.68;;;19.30;99.90;;;;;;5028211;28;20644;-57
2022/08/11 06:46:45;;;;;;;10.25;9.07;;;19.40;99.90;;;;;;5030656;28;20052;-56
2022/08/11 06:52:00;;;;;;;13.90;9.77;;;19.60;99.90;;;;;;5034960;28;20041;-57
2022/08/11 06:54:43;;;;;;;10.20;9.13;;;19.70;99.90;;;;;;5030224;28;20068;-56
2022/08/11 07:03:00;;;;;;;11.23;8.95;;;19.90;99.90;;;;;;5035699;28;20045;-57
2022/08/11 07:05:46;;;;;;;15.38;9.05;;;20.00;99.90;;;;;;5036538;28;20041;-58
2022/08/11 07:17:48;;;;;;;10.20;7.28;;;20.60;99.90;;;;;;5022727;28;20045;-58
2022/08/11 07:28:59;;;;;;;11.32;6.78;;;21.00;99.90;;;;;;5025356;28;20041;-58
2022/08/11 07:31:34;;;;;;;10.68;6.90;;;21.10;99.90;;;;;;5028422;28;20475;-58
2022/08/11 07:34:09;;;;;;;10.27;6.63;;;21.20;99.90;;;;;;5020190;28;20037;-61
2022/08/11 07:36:39;;;;;;;9.23;6.45;;;21.20;99.90;;;;;;5022423;28;20044;-57
2022/08/11 07:39:12;;;;;;;11.43;8.10;;;21.40;99.90;;;;;;5026224;28;20567;-57
2022/08/11 07:41:38;;;;;;;8.02;6.95;;;21.40;99.90;;;;;;5033159;28;20134;-58
2022/08/11 07:44:07;;;;;;;13.23;7.18;;;21.50;99.90;;;;;;5038541;28;20769;-57
2022/08/11 07:54:57;;;;;;;8.15;5.70;;;21.90;99.90;;;;;;5021191;28;20056;-58
2022/08/11 08:19:25;;;;;;;9.57;6.43;;;23.10;99.90;;;;;;5033685;28;20049;-57
2022/08/11 08:21:51;;;;;;;9.75;6.20;;;23.20;99.90;;;;;;5032912;28;20037;-56
2022/08/11 08:24:19;;;;;;;10.45;5.97;;;23.20;99.90;;;;;;5034263;28;20455;-57
2022/08/11 08:26:59;;;;;;;10.10;6.18;;;23.40;99.90;;;;;;5014930;28;20478;-58
2022/08/11 08:32:20;;;;;;;9.32;5.78;;;23.60;99.90;;;;;;5030861;28;20060;-58
2022/08/11 08:34:50;;;;;;;7.00;4.95;;;23.70;99.90;;;;;;5029602;28;20037;-58
2022/08/11 08:37:22;;;;;;;7.55;5.05;;;23.80;99.90;;;;;;5027105;28;20446;-59
2022/08/11 08:39:49;;;;;;;6.82;4.60;;;24.00;99.90;;;;;;5015733;28;20503;-58
2022/08/11 08:42:28;;;;;;;7.93;4.38;;;24.10;99.90;;;;;;5045148;22;20139;-59
2022/08/11 08:45:09;;;;;;;5.75;4.22;;;24.30;99.90;;;;;;5068286;28;20063;-59
2022/08/11 08:47:38;;;;;;;9.98;5.68;;;24.50;99.90;;;;;;5067202;28;20044;-59
2022/08/11 08:50:09;;;;;;;10.50;5.18;;;24.60;99.90;;;;;;5056311;28;22567;-60
2022/08/11 08:52:44;;;;;;;8.15;4.60;;;24.70;99.90;;;;;;5050762;28;20443;-58
2022/08/11 08:55:16;;;;;;;6.43;4.40;;;24.80;99.90;;;;;;5056875;28;20098;-58
2022/08/11 08:57:44;;;;;;;5.20;3.90;;;24.90;99.90;;;;;;5058621;28;20540;-61
2022/08/11 09:00:12;;;;;;;7.88;4.60;;;25.00;99.90;;;;;;5066022;28;20292;-62
2022/08/11 09:02:40;;;;;;;6.60;4.20;;;25.10;99.90;;;;;;5066682;28;20132;-62
2022/08/11 09:05:07;;;;;;;5.93;3.67;;;25.20;99.90;;;;;;5060974;28;20040;-62
2022/08/11 09:07:34;;;;;;;8.32;3.75;;;25.30;99.90;;;;;;5053969;28;20041;-61
2022/08/11 09:10:00;;;;;;;6.13;4.00;;;25.40;99.90;;;;;;5052155;28;20609;-62
2022/08/11 09:12:28;;;;;;;6.57;3.63;;;25.50;99.90;;;;;;5053356;28;20037;-62
2022/08/11 09:15:04;;;;;;;7.10;3.35;;;25.50;99.90;;;;;;5053342;28;20028;-61
2022/08/11 09:17:35;;;;;;;4.78;3.15;;;25.70;99.90;;;;;;5049090;28;20037;-61
2022/08/11 09:20:08;;;;;;;5.32;3.08;;;25.70;99.90;;;;;;5048322;28;20036;-60
2022/08/11 09:28:12;;;;;;;5.10;2.17;;;26.10;99.90;;;;;;5064626;28;20048;-61
2022/08/11 09:30:41;;;;;;;4.72;2.53;;;26.10;99.40;;;;;;5045570;28;20063;-61
2022/08/11 09:33:10;;;;;;;7.57;2.60;;;26.20;99.10;;;;;;5051485;28;20404;-59
2022/08/11 09:35:37;;;;;;;7.00;2.90;;;26.30;98.40;;;;;;5057440;28;20078;-59
2022/08/11 09:40:50;;;;;;;3.78;2.30;;;26.70;98.30;;;;;;5063975;28;20084;-59
2022/08/11 09:46:05;;;;;;;5.40;2.25;;;26.90;97.30;;;;;;5057749;28;20063;-60
2022/08/11 09:48:37;;;;;;;8.38;2.63;;;27.00;97.30;;;;;;5061779;28;20039;-60
2022/08/11 09:51:04;;;;;;;5.50;2.50;;;27.10;96.70;;;;;;5060700;28;20522;-60
2022/08/11 09:53:33;;;;;;;5.47;2.20;;;27.20;96.60;;;;;;5061338;28;20528;-59
2022/08/11 09:58:12;;;;;;;4.25;2.65;;;27.30;96.40;;;;;;5062930;28;20139;-59
2022/08/11 09:58:46;;;;;;;3.40;2.35;;;27.50;95.50;;;;;;5057821;28;20105;-61
2022/08/11 10:01:25;;;;;;;4.18;2.78;;;27.50;94.60;;;;;;5061173;28;20045;-61
2022/08/11 10:04:11;;;;;;;5.43;2.30;;;27.60;94.00;;;;;;5058704;28;20124;-60
2022/08/11 10:09:24;;;;;;;4.93;2.75;;;27.80;93.80;;;;;;5056127;28;20048;-60
2022/08/11 10:11:55;;;;;;;5.00;2.70;;;28.00;93.80;;;;;;5049942;28;20189;-60
2022/08/11 10:17:08;;;;;;;5.90;2.42;;;28.10;93.50;;;;;;5055609;28;20043;-60
2022/08/11 10:19:36;;;;;;;3.47;2.28;;;28.20;90.90;;;;;;5058902;28;20112;-60
2022/08/11 10:27:42;;;;;;;3.88;2.05;;;28.30;90.30;;;;;;5059170;28;21197;-60
2022/08/11 10:35:43;;;;;;;5.00;2.20;;;28.80;91.20;;;;;;5058626;28;20056;-60
2022/08/11 10:38:09;;;;;;;6.22;2.58;;;28.90;90.40;;;;;;5042841;28;20037;-58
2022/08/11 10:40:38;;;;;;;4.40;2.10;;;29.00;89.30;;;;;;5059857;28;20051;-60
2022/08/11 10:43:11;;;;;;;3.58;2.00;;;29.00;89.30;;;;;;5039489;28;20037;-59
2022/08/11 10:48:28;;;;;;;3.92;1.75;;;29.20;86.60;;;;;;5056062;28;20045;-58
2022/08/11 10:51:13;;;;;;;4.35;2.03;;;29.30;88.00;;;;;;5057972;28;20508;-60
2022/08/11 10:59:15;;;;;;;3.75;1.88;;;29.40;84.90;;;;;;5054093;28;20041;-60
2022/08/11 11:01:42;;;;;;;4.38;2.10;;;29.50;84.00;;;;;;5054880;28;20044;-59
2022/08/11 11:04:28;;;;;;;4.00;1.65;;;29.50;83.20;;;;;;5052448;28;20132;-59
2022/08/11 11:07:14;;;;;;;5.00;2.00;;;29.70;81.40;;;;;;5052231;28;20028;-60
2022/08/11 11:09:47;;;;;;;4.35;1.80;;;29.70;81.50;;;;;;5059707;28;20052;-60
2022/08/11 11:18:06;;;;;;;7.20;2.00;;;29.90;78.00;;;;;;5070933;28;20048;-60
2022/08/11 11:20:41;;;;;;;2.58;1.60;;;29.90;76.50;;;;;;5056955;28;20029;-60
2022/08/11 11:23:11;;;;;;;3.85;2.03;;;29.90;75.90;;;;;;5059719;28;20037;-60
2022/08/11 11:26:05;;;;;;;3.53;1.90;;;30.00;76.30;;;;;;5060742;28;20064;-61
2022/08/11 11:28:36;;;;;;;;;;;30.00;74.80;;;;;;5057704;28;20037;-61
2022/08/11 11:31:21;;;;;;;3.45;1.60;;;30.00;73.20;;;;;;5061154;28;19938;-59
2022/08/11 11:34:05;;;;;;;4.05;1.67;;;30.00;73.50;;;;;;5058244;28;20045;-60
2022/08/11 11:36:42;;;;;;;2.80;1.75;;;30.20;74.70;;;;;;5054041;28;20371;-60
2022/08/11 11:39:09;;;;;;;4.80;1.80;;;30.40;75.70;;;;;;5057443;28;20119;-60
2022/08/11 11:41:35;;;;;;;3.00;1.50;;;30.60;74.40;;;;;;5054509;28;20491;-60
2022/08/11 11:44:02;;;;;;;4.53;1.80;;;30.50;73.70;;;;;;5051602;28;20073;-60
2022/08/11 11:46:30;;;;;;;3.90;1.88;;;30.60;73.90;;;;;;5061012;28;20040;-61
2022/08/11 11:48:59;;;;;;;4.00;1.60;;;30.60;71.90;;;;;;5053273;28;20064;-61
2022/08/11 11:51:26;;;;;;;3.00;2.00;;;30.70;70.80;;;;;;5057181;28;20071;-61
2022/08/11 11:53:53;;;;;;;2.72;1.50;;;30.80;70.60;;;;;;5059558;28;20101;-61
2022/08/11 11:56:23;;;;;;;1.73;1.45;;;30.90;71.00;;;;;;5056411;28;20040;-60
2022/08/11 12:01:36;;;;;;;2.30;1.40;;;31.10;69.60;;;;;;5053174;28;20121;-58
2022/08/11 12:04:05;;;;;;;4.00;1.80;;;31.10;68.40;;;;;;5056498;28;20098;-59
2022/08/11 12:06:32;;;;;;;4.07;1.70;;;31.20;69.50;;;;;;5053480;28;20044;-60
2022/08/11 12:08:58;;;;;;;5.60;1.65;;;31.20;68.00;;;;;;5049365;28;20037;-60
2022/08/11 12:14:11;;;;;;;6.32;1.98;;;31.10;69.20;;;;;;5055090;28;20613;-60
2022/08/11 12:16:39;;;;;;;3.60;2.05;;;31.20;68.20;;;;;;5059111;28;20047;-61
2022/08/11 12:19:13;;;;;;;6.53;1.95;;;31.30;67.90;;;;;;5057248;28;20045;-59
2022/08/11 12:27:21;;;;;;;7.45;2.00;;;31.50;66.50;;;;;;5059383;28;20037;-59
2022/08/11 12:29:52;;;;;;;4.93;1.85;;;31.60;66.10;;;;;;5058160;28;20048;-60
2022/08/11 12:32:20;;;;;;;3.42;1.63;;;31.70;64.50;;;;;;5053944;28;20115;-59
2022/08/11 12:34:46;;;;;;;10.18;1.80;;;31.90;66.00;;;;;;5061013;28;20036;-60
2022/08/11 12:37:13;;;;;;;2.35;1.65;;;32.00;64.50;;;;;;5058124;28;20398;-60
2022/08/11 12:45:26;;;;;;;3.08;1.73;;;32.00;63.00;;;;;;5062945;28;20041;-60
2022/08/11 12:53:30;;;;;;;3.50;1.50;;;32.30;59.80;;;;;;5058577;28;20071;-60
2022/08/11 12:58:49;;;;;;;2.15;1.50;;;32.30;61.10;;;;;;5059301;28;20491;-60
2022/08/11 13:06:46;;;;;;;2.67;1.83;;;32.50;61.40;;;;;;5061257;28;20041;-60
2022/08/11 13:09:12;;;;;;;2.53;1.35;;;32.60;60.90;;;;;;5067646;28;20094;-58
2022/08/11 13:14:28;;;;;;;4.80;1.63;;;32.60;61.30;;;;;;5063293;28;20098;-59
2022/08/11 13:19:59;;;;;;;2.42;1.45;;;32.90;59.40;;;;;;5027507;28;20167;-61
2022/08/11 13:22:26;;;;;;;3.10;1.33;;;32.60;58.70;;;;;;5020745;28;20048;-60
2022/08/11 13:24:54;;;;;;;3.45;1.92;;;32.50;59.60;;;;;;5030274;28;20052;-61
2022/08/11 13:27:21;;;;;;;3.08;1.65;;;32.60;61.00;;;;;;5042969;28;20081;-60
2022/08/11 13:29:49;;;;;;;5.80;2.45;;;32.60;62.80;;;;;;5059182;28;20123;-60
2022/08/11 13:32:15;;;;;;;2.95;1.92;;;32.60;62.70;;;;;;5045222;28;20033;-60
2022/08/11 13:34:42;;;;;;;3.20;1.50;;;32.50;63.00;;;;;;5058484;28;20051;-61
2022/08/11 13:37:13;;;;;;;3.95;1.60;;;32.60;64.00;;;;;;5062907;28;20095;-60
2022/08/11 13:39:45;;;;;;;2.88;1.77;;;32.60;63.00;;;;;;5063436;28;20032;-60
2022/08/11 13:42:14;;;;;;;4.10;1.33;;;32.60;62.90;;;;;;5059121;28;20488;-59
2022/08/11 13:44:41;;;;;;;4.88;2.15;;;32.60;64.70;;;;;;5055864;28;20527;-60
2022/08/11 13:47:08;;;;;;;8.40;1.88;;;32.70;64.60;;;;;;5058602;28;20056;-60
2022/08/11 13:49:39;;;;;;;5.03;1.65;;;32.80;63.50;;;;;;5066147;28;20487;-61
2022/08/11 13:52:11;;;;;;;5.72;1.60;;;32.70;62.40;;;;;;5056221;28;20072;-60
2022/08/11 13:54:40;;;;;;;3.60;1.77;;;32.70;61.30;;;;;;5040197;28;20036;-60
2022/08/11 13:57:10;;;;;;;4.82;1.70;;;32.60;63.50;;;;;;5058992;28;20482;-59
2022/08/11 13:59:37;;;;;;;2.70;1.33;;;32.70;63.20;;;;;;5062199;28;20036;-59
2022/08/11 14:02:11;;;;;;;3.60;1.67;;;32.60;63.70;;;;;;5062433;28;20052;-60
2022/08/11 14:04:44;;;;;;;4.68;1.83;;;32.60;63.80;;;;;;5059807;28;20533;-59
2022/08/11 14:07:13;;;;;;;3.58;1.65;;;32.60;63.70;;;;;;5064230;28;20041;-58
2022/08/11 14:09:43;;;;;;;3.20;1.30;;;32.70;62.20;;;;;;5055206;28;20079;-60
2022/08/11 14:15:20;;;;;;;2.97;1.52;;;32.40;60.70;;;;;;5060962;28;20051;-60
2022/08/11 14:17:59;;;;;;;6.38;1.63;;;32.30;62.20;;;;;;5063454;28;20112;-60
2022/08/11 14:22:05;;;;;;;6.28;1.80;;;32.20;63.10;;;;;;5056139;28;20048;-60
2022/08/11 14:23:14;;;;;;;3.60;2.03;;;32.10;61.70;;;;;;5043222;28;20456;-61
2022/08/11 14:26:22;;;;;;;4.75;2.00;;;32.10;62.80;;;;;;5060973;28;20043;-59
2022/08/11 14:28:27;;;;;;;4.90;1.90;;;32.00;61.50;;;;;;5060765;28;20129;-60
2022/08/11 14:30:56;;;;;;;4.68;1.85;;;31.70;62.50;;;;;;5060280;28;20064;-59
2022/08/11 14:33:22;;;;;;;7.22;1.60;;;31.60;61.90;;;;;;5060292;28;20118;-60
2022/08/11 14:35:48;;;;;;;3.97;1.63;;;31.40;63.70;;;;;;5056563;28;20388;-60
2022/08/11 14:38:15;;;;;;;3.00;1.58;;;31.30;63.20;;;;;;5062100;28;20036;-59
2022/08/11 14:48:59;;;;;;;8.68;2.47;;;30.70;63.10;;;;;;5039918;28;20041;-60
2022/08/11 14:51:25;;;;;;;8.73;2.03;;;30.50;63.70;;;;;;5043475;28;20068;-61
2022/08/11 14:56:34;;;;;;;4.22;1.50;;;30.40;64.60;;;;;;5040599;28;20500;-62
2022/08/11 14:56:39;;;;;;;3.03;1.60;;;30.30;65.00;;;;;;5043805;28;20037;-62
2022/08/11 14:59:06;;;;;;;3.72;1.75;;;30.00;65.60;;;;;;5040253;28;20384;-61
2022/08/11 15:04:19;;;;;;;3.65;1.50;;;29.70;66.30;;;;;;5039785;28;20076;-60
2022/08/11 15:06:45;;;;;;;4.43;1.52;;;29.60;66.50;;;;;;5038621;28;20045;-59
2022/08/11 15:09:10;;;;;;;4.07;1.88;;;29.40;67.10;;;;;;5031433;28;20045;-61
2022/08/11 15:17:07;;;;;;;2.95;1.30;;;29.10;68.20;;;;;;5029232;28;20057;-63
2022/08/11 15:19:34;;;;;;;3.25;1.50;;;29.10;68.50;;;;;;5035031;28;20709;-61
2022/08/11 15:24:44;;;;;;;5.57;1.80;;;28.90;69.00;;;;;;5031265;28;20037;-62
2022/08/11 15:38:22;;;;;;;4.40;1.40;;;28.40;69.70;;;;;;5027569;28;20535;-62
2022/08/11 15:46:46;;;;;;;6.60;2.08;;;28.20;69.50;;;;;;5030228;28;20077;-62
2022/08/11 15:49:16;;;;;;;4.60;1.75;;;28.10;68.80;;;;;;5028380;28;20071;-64
2022/08/11 15:51:52;;;;;;;3.67;1.33;;;28.00;69.10;;;;;;5029511;28;20045;-62
2022/08/11 15:54:22;;;;;;;2.03;1.35;;;28.00;69.30;;;;;;5030726;28;20043;-62
2022/08/11 15:56:50;;;;;;;4.43;1.48;;;27.80;69.30;;;;;;5028216;28;20137;-63
2022/08/11 16:04:49;;;;;;;4.72;1.60;;;27.70;70.30;;;;;;5029497;28;20049;-64
2022/08/11 16:07:23;;;;;;;4.70;1.50;;;27.60;70.70;;;;;;5033526;28;20176;-64
2022/08/11 16:09:55;;;;;;;3.13;1.40;;;27.60;70.70;;;;;;5027820;28;20049;-62
2022/08/11 16:12:29;;;;;;;14.15;1.90;;;27.50;71.40;;;;;;5014590;28;20044;-62
2022/08/11 16:18:05;;;;;;;5.70;1.48;;;27.40;71.80;;;;;;5021273;28;20103;-63
2022/08/11 16:20:32;;;;;;;2.65;1.30;;;27.40;71.90;;;;;;5011041;28;20049;-70
2022/08/11 16:23:07;;;;;;;2.90;1.60;;;27.30;72.10;;;;;;5027071;28;20550;-64
2022/08/11 16:25:34;;;;;;;3.08;1.45;;;27.30;71.50;;;;;;5035044;28;20075;-60
2022/08/11 16:28:04;;;;;;;7.60;1.70;;;27.20;72.10;;;;;;5039902;28;20110;-61
2022/08/11 16:30:35;;;;;;;3.25;1.27;;;27.20;72.20;;;;;;5044997;28;20032;-62
2022/08/11 16:33:03;;;;;;;2.30;1.30;;;27.10;71.90;;;;;;5043710;28;20044;-63
2022/08/11 16:38:36;;;;;;;5.57;1.48;;;27.10;72.80;;;;;;5037676;28;20124;-62
2022/08/11 16:41:07;;;;;;;3.42;1.67;;;27.00;73.40;;;;;;5036695;28;20040;-64
2022/08/11 16:49:32;;;;;;;4.90;1.50;;;27.00;73.30;;;;;;5038369;28;20045;-62
2022/08/11 16:52:02;;;;;;;6.53;1.58;;;27.00;72.90;;;;;;5040710;28;20399;-60
2022/08/11 16:54:30;;;;;;;2.08;1.10;;;26.90;73.20;;;;;;5037378;28;20052;-63
2022/08/11 16:59:12;;;;;;;5.18;1.60;;;26.90;73.60;;;;;;5034317;28;20403;-60
2022/08/11 16:59:43;;;;;;;3.22;1.50;;;26.90;74.00;;;;;;5029153;28;20052;-60
2022/08/11 17:13:54;;;;;;;3.10;1.70;;;26.80;74.60;;;;;;5052895;28;20539;-62
2022/08/11 17:16:23;;;;;;;3.85;1.75;;;26.70;75.80;;;;;;5032523;28;20033;-60
2022/08/11 17:18:56;;;;;;;3.35;1.73;;;26.70;75.00;;;;;;5036381;28;20570;-61
2022/08/11 17:21:34;;;;;;;4.10;1.85;;;26.70;75.70;;;;;;5038584;28;20044;-63
2022/08/11 17:24:07;;;;;;;2.17;1.67;;;26.70;75.50;;;;;;5037973;28;20045;-61
2022/08/11 17:26:55;;;;;;;3.00;1.63;;;26.70;75.10;;;;;;5040626;28;20036;-59
2022/08/11 17:29:36;;;;;;;4.32;1.88;;;26.70;74.90;;;;;;5038617;28;20601;-63
2022/08/11 17:37:40;;;;;;;3.10;1.75;;;27.00;75.70;;;;;;5037285;28;20045;-58
2022/08/11 17:40:11;;;;;;;3.38;1.80;;;27.00;75.70;;;;;;5036185;28;20049;-60
2022/08/11 17:48:24;;;;;;;4.68;2.00;;;26.70;74.50;;;;;;5042983;28;20037;-59
2022/08/11 17:50:55;;;;;;;4.40;1.80;;;26.50;74.10;;;;;;5040048;28;20550;-63
2022/08/11 18:01:45;;;;;;;2.83;1.60;;;26.00;75.70;;;;;;5038557;28;20052;-60
2022/08/11 18:04:13;;;;;;;3.65;1.65;;;25.90;75.80;;;;;;5042921;28;20123;-63
2022/08/11 18:06:40;;;;;;;6.25;1.83;;;25.80;75.60;;;;;;5035628;28;20098;-61
